createdAt,value
2022-12-09T00:01:06.215Z,11.13
2022-12-09T00:03:33.926Z,9.57
2022-12-09T00:06:14.976Z,12.40
2022-12-09T00:08:42.531Z,11.93
2022-12-09T00:11:10.186Z,10.93
2022-12-09T00:13:37.916Z,12.97
2022-12-09T00:16:07.540Z,10.00
2022-12-09T00:18:35.559Z,12.33
2022-12-09T00:21:22.620Z,14.40
2022-12-09T00:23:51.644Z,9.27
2022-12-09T00:26:21.184Z,9.83
2022-12-09T00:28:50.021Z,12.07
2022-12-09T00:31:21.717Z,9.00
2022-12-09T00:33:49.013Z,12.10
2022-12-09T00:36:19.632Z,10.97
2022-12-09T00:38:47.912Z,8.90
2022-12-09T00:41:16.555Z,12.77
2022-12-09T00:43:45.878Z,13.53
2022-12-09T00:46:13.931Z,14.20
2022-12-09T00:48:42.606Z,8.93
2022-12-09T00:51:13.254Z,9.03
2022-12-09T00:53:40.644Z,11.27
2022-12-09T00:56:08.381Z,12.47
2022-12-09T00:58:35.947Z,8.73
2022-12-09T01:01:03.578Z,10.47
2022-12-09T01:03:31.209Z,9.37
2022-12-09T01:05:58.667Z,11.43
2022-12-09T01:08:26.141Z,10.27
2022-12-09T01:10:53.648Z,12.30
2022-12-09T01:13:21.085Z,9.50
2022-12-09T01:15:48.397Z,6.67
2022-12-09T01:18:15.803Z,10.37
2022-12-09T01:20:43.256Z,11.10
2022-12-09T01:23:11.070Z,8.23
2022-12-09T01:25:39.314Z,8.90
2022-12-09T01:28:06.732Z,9.43
2022-12-09T01:30:34.005Z,11.27
2022-12-09T01:33:01.897Z,9.93
2022-12-09T01:35:29.394Z,9.43
2022-12-09T01:37:56.826Z,10.10
2022-12-09T01:40:24.309Z,11.97
2022-12-09T01:42:51.681Z,10.23
2022-12-09T01:45:23.508Z,8.27
2022-12-09T01:48:12.204Z,10.23
2022-12-09T01:50:50.666Z,10.77
2022-12-09T01:53:19.896Z,9.23
2022-12-09T01:55:48.192Z,9.83
2022-12-09T01:58:18.314Z,8.53
2022-12-09T02:00:46.963Z,10.43
2022-12-09T02:03:14.830Z,11.67
2022-12-09T02:05:43.918Z,9.00
2022-12-09T02:08:13.623Z,11.83
2022-12-09T02:10:56.590Z,7.87
2022-12-09T02:13:48.612Z,10.33
2022-12-09T02:16:21.434Z,11.77
2022-12-09T02:18:59.634Z,10.57
2022-12-09T02:21:42.239Z,14.13
2022-12-09T02:24:18.481Z,11.30
2022-12-09T02:26:57.591Z,11.53
2022-12-09T02:29:51.136Z,11.90
2022-12-09T02:32:19.050Z,10.07
2022-12-09T02:35:05.591Z,10.83
2022-12-09T02:37:46.164Z,9.90
2022-12-09T02:40:21.273Z,9.57
2022-12-09T02:42:50.142Z,10.30
2022-12-09T02:45:19.743Z,14.30
2022-12-09T02:47:52.788Z,10.87
2022-12-09T02:50:25.449Z,9.67
2022-12-09T02:52:54.556Z,11.13
2022-12-09T02:55:23.108Z,13.37
2022-12-09T02:57:55.139Z,11.97
2022-12-09T03:00:23.476Z,10.33
2022-12-09T03:02:55.564Z,9.90
2022-12-09T03:05:30.668Z,12.63
2022-12-09T03:08:10.370Z,9.73
2022-12-09T03:10:48.112Z,11.93
2022-12-09T03:13:27.334Z,12.77
2022-12-09T03:16:09.962Z,10.37
2022-12-09T03:18:41.351Z,11.67
2022-12-09T03:21:09.205Z,11.77
2022-12-09T03:23:37.510Z,13.80
2022-12-09T03:26:06.308Z,15.80
2022-12-09T03:28:43.110Z,9.60
2022-12-09T03:31:14.846Z,13.80
2022-12-09T03:33:46.142Z,9.73
2022-12-09T03:36:15.539Z,11.00
2022-12-09T03:38:46.912Z,12.23
2022-12-09T03:41:25.857Z,12.97
2022-12-09T03:43:57.963Z,11.10
2022-12-09T03:46:26.004Z,15.33
2022-12-09T03:48:53.233Z,12.33
2022-12-09T03:51:46.160Z,11.83
2022-12-09T03:54:20.856Z,10.97
2022-12-09T03:56:51.983Z,11.53
2022-12-09T03:59:20.040Z,11.67
2022-12-09T04:01:47.946Z,11.40
2022-12-09T04:04:16.944Z,15.47
2022-12-09T04:06:44.305Z,12.93
2022-12-09T04:09:12.401Z,13.33
2022-12-09T04:11:39.871Z,10.40
2022-12-09T04:14:13.696Z,11.40
2022-12-09T04:16:43.560Z,10.50
2022-12-09T04:19:11.053Z,10.87
2022-12-09T04:21:38.586Z,13.27
2022-12-09T04:24:06.419Z,11.90
2022-12-09T04:26:35.079Z,18.63
2022-12-09T04:29:02.526Z,14.63
2022-12-09T04:31:29.991Z,13.10
2022-12-09T04:33:57.433Z,12.60
2022-12-09T04:36:25.056Z,12.80
2022-12-09T04:38:52.398Z,15.27
2022-12-09T04:41:19.711Z,9.33
2022-12-09T04:43:48.849Z,17.37
2022-12-09T04:46:17.855Z,13.23
2022-12-09T04:48:45.710Z,13.07
2022-12-09T04:51:15.506Z,15.13
2022-12-09T04:53:43.434Z,10.10
2022-12-09T04:56:15.298Z,10.93
2022-12-09T04:58:44.944Z,11.70
2022-12-09T05:01:17.746Z,13.97
2022-12-09T05:03:54.014Z,13.40
2022-12-09T05:06:22.955Z,13.83
2022-12-09T05:08:51.267Z,14.30
2022-12-09T05:11:20.642Z,15.70
2022-12-09T05:13:48.546Z,14.40
2022-12-09T05:16:18.359Z,12.80
2022-12-09T05:18:47.589Z,13.60
2022-12-09T05:21:17.927Z,13.03
2022-12-09T05:23:45.877Z,12.73
2022-12-09T05:26:17.309Z,12.43
2022-12-09T05:28:45.167Z,14.67
2022-12-09T05:31:18.095Z,13.60
2022-12-09T05:33:46.851Z,12.40
2022-12-09T05:36:16.937Z,14.20
2022-12-09T05:38:44.689Z,13.87
2022-12-09T05:41:12.990Z,13.63
2022-12-09T05:43:41.064Z,12.30
2022-12-09T05:46:10.239Z,10.07
2022-12-09T05:48:37.732Z,11.93
2022-12-09T05:51:27.168Z,15.90
2022-12-09T05:53:55.769Z,15.10
2022-12-09T05:56:25.344Z,13.27
2022-12-09T05:58:53.500Z,10.17
2022-12-09T06:01:21.428Z,13.47
2022-12-09T06:03:50.995Z,13.67
2022-12-09T06:06:20.703Z,12.60
2022-12-09T06:08:48.578Z,10.93
2022-12-09T06:11:18.908Z,19.90
2022-12-09T06:13:47.817Z,14.40
2022-12-09T06:16:19.013Z,15.03
2022-12-09T06:18:47.468Z,15.97
2022-12-09T06:21:16.983Z,13.47
2022-12-09T06:23:44.921Z,15.40
2022-12-09T06:26:17.290Z,14.43
2022-12-09T06:28:47.447Z,12.33
2022-12-09T06:31:15.477Z,12.60
2022-12-09T06:33:54.680Z,14.43
2022-12-09T06:36:22.863Z,15.70
2022-12-09T06:38:52.028Z,15.87
2022-12-09T06:41:20.678Z,17.53
2022-12-09T06:43:48.274Z,17.50
2022-12-09T06:46:23.685Z,17.77
2022-12-09T06:48:52.912Z,13.97
2022-12-09T06:51:21.572Z,12.63
2022-12-09T06:53:48.984Z,14.00
2022-12-09T06:56:17.137Z,15.83
2022-12-09T06:58:45.958Z,21.73
2022-12-09T07:01:24.866Z,15.20
2022-12-09T07:03:55.552Z,16.30
2022-12-09T07:06:38.538Z,15.67
2022-12-09T07:09:15.097Z,15.20
2022-12-09T07:11:46.207Z,22.30
2022-12-09T07:14:15.431Z,16.27
2022-12-09T07:16:43.612Z,17.23
2022-12-09T07:19:30.847Z,19.20
2022-12-09T07:21:58.612Z,16.20
2022-12-09T07:24:26.665Z,18.23
2022-12-09T07:26:54.458Z,14.83
2022-12-09T07:29:21.783Z,14.83
2022-12-09T07:31:49.532Z,16.17
2022-12-09T07:34:17.621Z,18.30
2022-12-09T07:36:45.430Z,15.80
2022-12-09T07:39:18.000Z,13.77
2022-12-09T07:41:48.588Z,12.93
2022-12-09T07:44:16.258Z,15.67
2022-12-09T07:46:43.867Z,13.20
2022-12-09T07:49:12.877Z,15.77
2022-12-09T07:51:40.824Z,15.50
2022-12-09T07:54:15.276Z,14.97
2022-12-09T07:56:43.517Z,12.87
2022-12-09T07:59:13.688Z,13.70
2022-12-09T08:01:41.654Z,14.33
2022-12-09T08:04:09.376Z,15.03
2022-12-09T08:06:38.035Z,15.67
2022-12-09T08:09:08.387Z,14.53
2022-12-09T08:11:36.060Z,16.20
2022-12-09T08:14:10.813Z,14.60
2022-12-09T08:16:40.766Z,14.23
2022-12-09T08:19:09.175Z,15.00
2022-12-09T08:21:36.847Z,15.03
2022-12-09T08:24:07.824Z,13.03
2022-12-09T08:26:37.560Z,16.20
2022-12-09T08:29:10.486Z,13.83
2022-12-09T08:31:41.829Z,13.20
2022-12-09T08:34:10.269Z,15.93
2022-12-09T08:36:38.056Z,16.37
2022-12-09T08:39:06.173Z,17.37
2022-12-09T08:41:36.872Z,16.10
2022-12-09T08:44:10.600Z,17.80
2022-12-09T08:46:40.815Z,15.17
2022-12-09T08:49:09.330Z,15.87
2022-12-09T08:51:37.433Z,17.70
2022-12-09T08:54:06.021Z,16.30
2022-12-09T08:56:33.716Z,16.17
2022-12-09T08:59:02.173Z,12.50
2022-12-09T09:01:35.875Z,13.63
2022-12-09T09:04:08.739Z,15.00
2022-12-09T09:06:39.470Z,19.60
2022-12-09T09:09:09.080Z,18.30
2022-12-09T09:11:37.510Z,16.33
2022-12-09T09:14:07.107Z,13.83
2022-12-09T09:16:35.493Z,17.20
2022-12-09T09:19:05.841Z,16.87
2022-12-09T09:21:34.902Z,17.73
2022-12-09T09:24:07.878Z,19.50
2022-12-09T09:26:35.599Z,17.63
2022-12-09T09:29:03.379Z,21.07
2022-12-09T09:31:31.132Z,21.97
2022-12-09T09:33:58.877Z,22.23
2022-12-09T09:36:26.442Z,21.70
2022-12-09T09:38:56.728Z,18.43
2022-12-09T09:41:42.924Z,19.83
2022-12-09T09:44:23.287Z,17.47
2022-12-09T09:46:52.730Z,18.87
2022-12-09T09:49:37.618Z,18.33
2022-12-09T09:52:28.403Z,18.70
2022-12-09T09:54:57.098Z,16.73
2022-12-09T09:57:30.021Z,18.57
2022-12-09T10:00:30.008Z,15.77
2022-12-09T10:03:01.223Z,17.47
2022-12-09T10:05:35.746Z,18.33
2022-12-09T10:08:34.758Z,17.00
2022-12-09T10:11:19.842Z,17.63
2022-12-09T10:14:14.099Z,16.60
2022-12-09T10:16:48.390Z,17.53
2022-12-09T10:19:55.354Z,17.20
2022-12-09T10:22:27.183Z,19.43
2022-12-09T10:24:59.991Z,19.07
2022-12-09T10:27:45.393Z,18.57
2022-12-09T10:30:16.466Z,17.70
2022-12-09T10:32:45.197Z,16.77
2022-12-09T10:35:18.715Z,17.83
2022-12-09T10:37:47.934Z,16.33
2022-12-09T10:40:34.319Z,19.27
2022-12-09T10:43:42.403Z,18.00
2022-12-09T10:46:24.394Z,18.33
2022-12-09T10:48:57.594Z,18.93
2022-12-09T10:51:31.304Z,19.57
2022-12-09T10:54:21.934Z,17.10
2022-12-09T10:57:13.973Z,20.73
2022-12-09T10:59:56.936Z,16.97
2022-12-09T11:02:27.129Z,19.93
2022-12-09T11:04:54.870Z,19.33
2022-12-09T11:07:27.962Z,16.17
2022-12-09T11:10:01.886Z,17.07
2022-12-09T11:12:33.510Z,17.30
2022-12-09T11:15:07.622Z,18.47
2022-12-09T11:17:40.728Z,18.97
2022-12-09T11:20:21.547Z,18.40
2022-12-09T11:23:02.038Z,16.77
2022-12-09T11:25:36.057Z,16.50
2022-12-09T11:28:21.618Z,22.53
2022-12-09T11:31:27.103Z,15.17
2022-12-09T11:33:59.374Z,19.43
2022-12-09T11:36:43.992Z,16.60
2022-12-09T11:39:20.147Z,19.30
2022-12-09T11:42:19.968Z,18.90
2022-12-09T11:45:02.122Z,17.87
2022-12-09T11:50:37.000Z,18.73
2022-12-09T11:53:13.931Z,22.10
2022-12-09T11:55:57.469Z,19.57
2022-12-09T11:58:39.350Z,17.20
2022-12-09T12:01:16.127Z,19.50
2022-12-09T12:04:03.828Z,19.87
2022-12-09T12:06:47.085Z,18.70
2022-12-09T12:09:32.365Z,27.73
2022-12-09T12:12:22.349Z,25.93
2022-12-09T12:14:49.594Z,21.57
2022-12-09T12:17:34.586Z,22.80
2022-12-09T12:20:03.779Z,18.23
2022-12-09T12:22:56.438Z,23.13
2022-12-09T12:25:43.447Z,20.47
2022-12-09T12:28:32.189Z,20.13
2022-12-09T12:31:20.651Z,24.40
2022-12-09T12:34:34.297Z,21.83
2022-12-09T12:37:26.599Z,21.83
2022-12-09T12:40:26.548Z,20.73
2022-12-09T12:43:34.520Z,21.90
2022-12-09T12:46:17.313Z,18.70
2022-12-09T12:49:21.617Z,22.90
2022-12-09T12:52:53.856Z,19.20
2022-12-09T12:55:54.747Z,22.37
2022-12-09T12:58:47.005Z,19.13
2022-12-09T13:01:30.063Z,23.87
2022-12-09T13:04:08.506Z,22.90
2022-12-09T13:07:01.951Z,23.60
2022-12-09T13:09:38.324Z,22.37
2022-12-09T13:12:10.714Z,21.40
2022-12-09T13:14:53.936Z,21.43
2022-12-09T13:17:29.107Z,23.60
2022-12-09T13:20:01.105Z,22.17
2022-12-09T13:22:43.720Z,21.67
2022-12-09T13:25:35.114Z,20.60
2022-12-09T13:28:16.114Z,18.50
2022-12-09T13:30:54.316Z,28.40
2022-12-09T13:33:39.015Z,22.57
2022-12-09T13:36:06.894Z,22.00
2022-12-09T13:38:40.734Z,19.83
2022-12-09T13:41:26.569Z,24.90
2022-12-09T13:44:06.248Z,25.50
2022-12-09T13:46:34.914Z,26.03
2022-12-09T13:49:24.445Z,23.80
2022-12-09T13:51:54.388Z,22.00
2022-12-09T13:54:28.030Z,23.03
2022-12-09T13:57:23.913Z,24.97
2022-12-09T13:59:54.785Z,19.97
2022-12-09T14:02:27.932Z,22.90
2022-12-09T14:05:12.878Z,22.07
2022-12-09T14:07:48.549Z,25.43
2022-12-09T14:10:37.663Z,25.77
2022-12-09T14:13:30.887Z,25.60
2022-12-09T14:16:21.343Z,23.17
2022-12-09T14:18:48.611Z,24.37
2022-12-09T14:21:19.003Z,25.27
2022-12-09T14:24:25.496Z,25.10
2022-12-09T14:26:52.682Z,24.93
2022-12-09T14:29:53.627Z,22.60
2022-12-09T14:32:32.274Z,32.33
2022-12-09T14:35:06.267Z,25.97
2022-12-09T14:38:16.257Z,24.80
2022-12-09T14:41:01.588Z,24.97
2022-12-09T14:43:49.776Z,25.20
2022-12-09T14:46:31.487Z,25.87
2022-12-09T14:49:01.890Z,27.90
2022-12-09T14:51:40.108Z,24.57
2022-12-09T14:54:19.422Z,24.40
2022-12-09T14:56:52.399Z,19.40
2022-12-09T14:59:22.818Z,22.40
2022-12-09T15:01:52.554Z,22.93
2022-12-09T15:04:44.252Z,23.60
2022-12-09T15:07:28.045Z,24.43
2022-12-09T15:10:08.116Z,25.67
2022-12-09T15:12:40.092Z,23.77
2022-12-09T15:15:24.069Z,28.47
2022-12-09T15:17:58.641Z,29.90
2022-12-09T15:20:42.652Z,26.93
2022-12-09T15:23:21.080Z,22.97
2022-12-09T15:25:54.070Z,25.40
2022-12-09T15:28:30.094Z,25.90
2022-12-09T15:31:03.360Z,28.80
2022-12-09T15:33:38.694Z,30.27
2022-12-09T15:36:13.051Z,25.87
2022-12-09T15:38:45.531Z,29.77
2022-12-09T15:41:31.984Z,31.60
2022-12-09T15:44:06.100Z,25.33
2022-12-09T15:46:35.487Z,30.93
2022-12-09T15:49:04.226Z,32.90
2022-12-09T15:51:33.334Z,33.10
2022-12-09T15:54:04.597Z,29.97
2022-12-09T15:56:41.833Z,33.30
2022-12-09T15:59:24.897Z,28.13
2022-12-09T16:01:54.926Z,34.63
2022-12-09T16:04:25.227Z,32.57
2022-12-09T16:06:52.504Z,34.93
2022-12-09T16:09:21.186Z,31.67
2022-12-09T16:11:51.834Z,30.67
2022-12-09T16:14:21.449Z,29.97
2022-12-09T16:16:50.846Z,30.93
2022-12-09T16:19:41.826Z,27.77
2022-12-09T16:22:15.075Z,34.07
2022-12-09T16:25:14.558Z,30.90
2022-12-09T16:27:50.762Z,31.70
2022-12-09T16:30:23.419Z,27.80
2022-12-09T16:32:55.659Z,29.47
2022-12-09T16:35:43.980Z,33.07
2022-12-09T16:38:11.169Z,34.50
2022-12-09T16:40:44.293Z,30.10
2022-12-09T16:43:20.315Z,31.07
2022-12-09T16:45:56.153Z,31.03
2022-12-09T16:48:25.363Z,33.20
2022-12-09T16:51:17.661Z,29.30
2022-12-09T16:53:47.857Z,36.33
2022-12-09T16:56:29.886Z,39.47
2022-12-09T16:58:59.186Z,33.47
2022-12-09T17:01:35.147Z,32.40
2022-12-09T17:04:16.080Z,35.47
2022-12-09T17:06:46.703Z,36.30
2022-12-09T17:09:14.136Z,29.23
2022-12-09T17:11:46.962Z,27.97
2022-12-09T17:14:16.724Z,36.33
2022-12-09T17:16:44.388Z,34.30
2022-12-09T17:19:13.178Z,33.00
2022-12-09T17:21:40.411Z,35.87
2022-12-09T17:24:09.809Z,36.27
2022-12-09T17:26:37.368Z,34.67
2022-12-09T17:29:07.190Z,35.57
2022-12-09T17:31:34.567Z,33.03
2022-12-09T17:34:02.026Z,30.00
2022-12-09T17:36:29.236Z,32.00
2022-12-09T17:39:01.599Z,36.17
2022-12-09T17:41:29.026Z,32.73
2022-12-09T17:43:57.922Z,34.73
2022-12-09T17:46:25.563Z,33.97
2022-12-09T17:48:53.065Z,37.33
2022-12-09T17:51:20.419Z,33.27
2022-12-09T17:53:48.351Z,36.23
2022-12-09T17:56:18.146Z,35.20
2022-12-09T17:58:46.617Z,27.87
2022-12-09T18:01:20.037Z,33.10
2022-12-09T18:03:56.157Z,35.40
2022-12-09T18:06:25.632Z,33.60
2022-12-09T18:08:53.547Z,35.07
2022-12-09T18:11:22.339Z,37.03
2022-12-09T18:13:50.728Z,32.83
2022-12-09T18:16:18.455Z,31.60
2022-12-09T18:18:46.318Z,39.17
2022-12-09T18:21:15.908Z,32.13
2022-12-09T18:23:43.958Z,31.70
2022-12-09T18:26:16.041Z,35.23
2022-12-09T18:28:44.029Z,31.67
2022-12-09T18:31:14.996Z,34.60
2022-12-09T18:33:42.793Z,32.33
2022-12-09T18:36:13.339Z,31.33
2022-12-09T18:38:41.726Z,34.10
2022-12-09T18:41:20.869Z,27.50
2022-12-09T18:43:50.412Z,36.87
2022-12-09T18:46:25.634Z,33.97
2022-12-09T18:49:02.120Z,36.73
2022-12-09T18:51:29.921Z,36.00
2022-12-09T18:54:01.101Z,26.93
2022-12-09T18:56:29.067Z,34.53
2022-12-09T18:59:06.502Z,37.50
2022-12-09T19:01:39.712Z,40.40
2022-12-09T19:04:27.625Z,36.40
2022-12-09T19:06:57.935Z,30.90
2022-12-09T19:09:33.489Z,32.67
2022-12-09T19:12:22.996Z,36.37
2022-12-09T19:14:49.987Z,35.60
2022-12-09T19:17:18.848Z,31.77
2022-12-09T19:19:47.302Z,37.63
2022-12-09T19:22:14.734Z,32.13
2022-12-09T19:24:43.613Z,39.27
2022-12-09T19:27:11.114Z,38.17
2022-12-09T19:29:39.632Z,33.53
2022-12-09T19:32:23.617Z,35.03
2022-12-09T19:34:54.254Z,34.97
2022-12-09T19:37:22.140Z,39.13
2022-12-09T19:39:58.822Z,42.00
2022-12-09T19:42:26.287Z,36.50
2022-12-09T19:45:01.516Z,38.40
2022-12-09T19:47:29.877Z,33.73
2022-12-09T19:49:57.137Z,34.80
2022-12-09T19:52:24.469Z,35.17
2022-12-09T19:54:51.657Z,39.37
2022-12-09T19:57:18.924Z,41.00
2022-12-09T19:59:47.377Z,38.17
2022-12-09T20:02:17.823Z,35.57
2022-12-09T20:04:50.035Z,32.50
2022-12-09T20:07:20.607Z,43.03
2022-12-09T20:09:48.551Z,38.97
2022-12-09T20:12:16.383Z,42.33
2022-12-09T20:14:44.112Z,39.60
2022-12-09T20:17:11.552Z,41.87
2022-12-09T20:19:38.890Z,36.83
2022-12-09T20:22:06.431Z,32.57
2022-12-09T20:24:34.219Z,38.73
2022-12-09T20:27:01.603Z,34.30
2022-12-09T20:29:33.920Z,33.53
2022-12-09T20:32:04.770Z,39.77
2022-12-09T20:34:32.156Z,36.73
2022-12-09T20:36:59.597Z,40.97
2022-12-09T20:39:27.091Z,42.40
2022-12-09T20:41:54.482Z,44.30
2022-12-09T20:44:21.811Z,45.40
2022-12-09T20:46:51.178Z,39.30
2022-12-09T20:49:27.079Z,38.67
2022-12-09T20:51:55.120Z,36.77
2022-12-09T20:54:23.275Z,30.30
2022-12-09T20:56:50.995Z,36.70
2022-12-09T20:59:18.549Z,40.27
2022-12-09T21:01:47.067Z,32.17
2022-12-09T21:04:15.123Z,36.13
2022-12-09T21:06:42.728Z,34.10
2022-12-09T21:09:14.803Z,35.40
2022-12-09T21:11:42.175Z,38.50
2022-12-09T21:14:11.135Z,39.87
2022-12-09T21:16:41.182Z,35.63
2022-12-09T21:19:12.371Z,35.53
2022-12-09T21:21:42.037Z,31.70
2022-12-09T21:24:13.909Z,37.57
2022-12-09T21:26:41.849Z,35.67
2022-12-09T21:29:11.181Z,36.30
2022-12-09T21:31:40.928Z,34.60
2022-12-09T21:34:09.808Z,43.67
2022-12-09T21:36:40.740Z,41.50
2022-12-09T21:39:08.974Z,36.77
2022-12-09T21:41:37.284Z,35.93
2022-12-09T21:44:05.867Z,36.40
2022-12-09T21:46:35.713Z,33.20
2022-12-09T21:49:05.719Z,32.80
2022-12-09T21:51:34.526Z,32.47
2022-12-09T21:54:01.999Z,33.37
2022-12-09T21:56:31.328Z,34.00
2022-12-09T21:58:59.468Z,35.90
2022-12-09T22:01:30.527Z,32.97
2022-12-09T22:03:58.898Z,36.13
2022-12-09T22:06:26.564Z,33.17
2022-12-09T22:08:54.180Z,36.53
2022-12-09T22:11:24.273Z,32.90
2022-12-09T22:13:52.633Z,40.20
2022-12-09T22:16:23.645Z,32.73
2022-12-09T22:18:53.772Z,38.57
2022-12-09T22:21:25.709Z,36.47
2022-12-09T22:23:58.786Z,36.03
2022-12-09T22:26:26.875Z,36.53
2022-12-09T22:28:54.869Z,34.60
2022-12-09T22:31:28.699Z,32.87
2022-12-09T22:34:00.027Z,39.70
2022-12-09T22:36:28.473Z,32.80
2022-12-09T22:38:55.970Z,35.47
2022-12-09T22:41:26.283Z,42.27
2022-12-09T22:43:54.922Z,33.17
2022-12-09T22:46:25.465Z,36.60
2022-12-09T22:48:52.960Z,40.57
2022-12-09T22:51:25.465Z,39.87
2022-12-09T22:53:54.360Z,38.70
2022-12-09T22:56:23.030Z,33.63
2022-12-09T22:58:50.627Z,38.60
2022-12-09T23:01:26.776Z,36.30
2022-12-09T23:03:55.490Z,37.73
2022-12-09T23:06:23.748Z,33.77
2022-12-09T23:08:51.217Z,33.70
2022-12-09T23:11:23.591Z,38.63
2022-12-09T23:13:51.726Z,31.60
2022-12-09T23:16:21.487Z,35.17
2022-12-09T23:18:49.768Z,41.77
2022-12-09T23:21:23.599Z,34.33
2022-12-09T23:24:02.676Z,40.30
2022-12-09T23:26:33.987Z,38.03
2022-12-09T23:29:02.548Z,36.50
2022-12-09T23:31:33.151Z,44.13
2022-12-09T23:34:02.252Z,32.33
2022-12-09T23:36:35.565Z,33.33
2022-12-09T23:39:05.630Z,34.57
2022-12-09T23:41:32.979Z,34.93
2022-12-09T23:44:00.239Z,38.97
2022-12-09T23:46:29.855Z,39.30
2022-12-09T23:48:57.204Z,37.53
2022-12-09T23:51:30.026Z,37.17
2022-12-09T23:54:02.576Z,35.00
2022-12-09T23:56:32.825Z,41.70
2022-12-09T23:59:04.184Z,36.77
